sensor_id;sensor_type;location;lat;lon;timestamp;P1;durP1;ratioP1;P2;durP2;ratioP2
54871;SDS011;43914;57.680;11.982;2022-09-27T00:00:57;6.55;;;1.98;;
54871;SDS011;43914;57.680;11.982;2022-09-27T00:03:29;6.10;;;1.80;;
54871;SDS011;43914;57.680;11.982;2022-09-27T00:06:03;5.70;;;1.80;;
54871;SDS011;43914;57.680;11.982;2022-09-27T00:08:42;5.17;;;1.65;;
54871;SDS011;43914;57.680;11.982;2022-09-27T00:11:10;5.83;;;1.90;;
54871;SDS011;43914;57.680;11.982;2022-09-27T00:13:46;6.28;;;1.85;;
54871;SDS011;43914;57.680;11.982;2022-09-27T00:16:12;5.87;;;1.82;;
54871;SDS011;43914;57.680;11.982;2022-09-27T00:18:38;6.67;;;1.80;;
54871;SDS011;43914;57.680;11.982;2022-09-27T00:21:09;7.50;;;2.10;;
54871;SDS011;43914;57.680;11.982;2022-09-27T00:23:35;5.35;;;1.60;;
54871;SDS011;43914;57.680;11.982;2022-09-27T00:26:05;8.50;;;1.67;;
54871;SDS011;43914;57.680;11.982;2022-09-27T00:28:34;5.65;;;1.75;;
54871;SDS011;43914;57.680;11.982;2022-09-27T00:31:01;5.53;;;1.87;;
54871;SDS011;43914;57.680;11.982;2022-09-27T00:33:29;4.42;;;1.65;;
54871;SDS011;43914;57.680;11.982;2022-09-27T00:36:02;4.97;;;1.50;;
54871;SDS011;43914;57.680;11.982;2022-09-27T00:38:31;4.87;;;1.57;;
54871;SDS011;43914;57.680;11.982;2022-09-27T00:40:57;5.33;;;1.80;;
54871;SDS011;43914;57.680;11.982;2022-09-27T00:43:26;4.75;;;1.62;;
54871;SDS011;43914;57.680;11.982;2022-09-27T00:49:04;5.53;;;1.50;;
54871;SDS011;43914;57.680;11.982;2022-09-27T00:51:34;5.62;;;1.57;;
54871;SDS011;43914;57.680;11.982;2022-09-27T00:54:04;5.67;;;1.60;;
54871;SDS011;43914;57.680;11.982;2022-09-27T00:56:33;6.10;;;1.92;;
54871;SDS011;43914;57.680;11.982;2022-09-27T00:59:02;6.20;;;1.57;;
54871;SDS011;43914;57.680;11.982;2022-09-27T01:04:08;5.33;;;1.50;;
54871;SDS011;43914;57.680;11.982;2022-09-27T01:06:38;5.92;;;1.40;;
54871;SDS011;43914;57.680;11.982;2022-09-27T01:09:05;6.45;;;1.80;;
54871;SDS011;43914;57.680;11.982;2022-09-27T01:32:27;4.50;;;1.50;;
54871;SDS011;43914;57.680;11.982;2022-09-27T01:37:47;4.25;;;1.40;;
54871;SDS011;43914;57.680;11.982;2022-09-27T01:40:31;6.70;;;1.45;;
54871;SDS011;43914;57.680;11.982;2022-09-27T01:43:06;4.90;;;1.40;;
54871;SDS011;43914;57.680;11.982;2022-09-27T01:45:55;5.47;;;1.75;;
54871;SDS011;43914;57.680;11.982;2022-09-27T01:48:46;7.30;;;1.60;;
54871;SDS011;43914;57.680;11.982;2022-09-27T01:51:16;6.40;;;1.47;;
54871;SDS011;43914;57.680;11.982;2022-09-27T01:54:01;7.05;;;1.75;;
54871;SDS011;43914;57.680;11.982;2022-09-27T01:56:34;6.97;;;1.80;;
54871;SDS011;43914;57.680;11.982;2022-09-27T01:59:21;5.85;;;1.67;;
54871;SDS011;43914;57.680;11.982;2022-09-27T02:01:57;5.72;;;1.47;;
54871;SDS011;43914;57.680;11.982;2022-09-27T02:04:30;7.03;;;1.70;;
54871;SDS011;43914;57.680;11.982;2022-09-27T02:06:58;5.22;;;1.62;;
54871;SDS011;43914;57.680;11.982;2022-09-27T02:09:47;6.80;;;1.87;;
54871;SDS011;43914;57.680;11.982;2022-09-27T02:12:10;4.90;;;1.60;;
54871;SDS011;43914;57.680;11.982;2022-09-27T02:14:55;5.90;;;1.65;;
54871;SDS011;43914;57.680;11.982;2022-09-27T02:30:55;4.83;;;1.45;;
54871;SDS011;43914;57.680;11.982;2022-09-27T02:33:24;7.40;;;1.60;;
54871;SDS011;43914;57.680;11.982;2022-09-27T02:36:02;5.60;;;1.50;;
54871;SDS011;43914;57.680;11.982;2022-09-27T02:38:28;6.58;;;1.67;;
54871;SDS011;43914;57.680;11.982;2022-09-27T02:40:54;5.30;;;1.60;;
54871;SDS011;43914;57.680;11.982;2022-09-27T02:43:21;4.83;;;1.30;;
54871;SDS011;43914;57.680;11.982;2022-09-27T02:52:14;3.83;;;1.22;;
54871;SDS011;43914;57.680;11.982;2022-09-27T03:00:56;5.55;;;1.50;;
54871;SDS011;43914;57.680;11.982;2022-09-27T03:03:38;4.62;;;1.30;;
54871;SDS011;43914;57.680;11.982;2022-09-27T03:06:17;6.22;;;1.60;;
54871;SDS011;43914;57.680;11.982;2022-09-27T03:08:47;4.87;;;1.50;;
54871;SDS011;43914;57.680;11.982;2022-09-27T03:11:13;5.55;;;1.42;;
54871;SDS011;43914;57.680;11.982;2022-09-27T03:13:41;5.62;;;1.57;;
54871;SDS011;43914;57.680;11.982;2022-09-27T03:16:09;5.28;;;1.52;;
54871;SDS011;43914;57.680;11.982;2022-09-27T03:18:36;4.50;;;1.42;;
54871;SDS011;43914;57.680;11.982;2022-09-27T03:21:02;4.00;;;1.30;;
54871;SDS011;43914;57.680;11.982;2022-09-27T03:23:28;4.75;;;1.42;;
54871;SDS011;43914;57.680;11.982;2022-09-27T03:25:54;4.03;;;1.27;;
54871;SDS011;43914;57.680;11.982;2022-09-27T03:28:24;5.12;;;1.52;;
54871;SDS011;43914;57.680;11.982;2022-09-27T03:30:52;4.85;;;1.37;;
54871;SDS011;43914;57.680;11.982;2022-09-27T03:33:19;5.28;;;1.70;;
54871;SDS011;43914;57.680;11.982;2022-09-27T03:35:45;6.95;;;1.62;;
54871;SDS011;43914;57.680;11.982;2022-09-27T03:38:12;4.33;;;1.52;;
54871;SDS011;43914;57.680;11.982;2022-09-27T03:40:38;5.80;;;1.40;;
54871;SDS011;43914;57.680;11.982;2022-09-27T03:43:04;4.60;;;1.40;;
54871;SDS011;43914;57.680;11.982;2022-09-27T03:45:30;4.17;;;1.32;;
54871;SDS011;43914;57.680;11.982;2022-09-27T03:47:57;4.45;;;1.50;;
54871;SDS011;43914;57.680;11.982;2022-09-27T03:50:23;4.25;;;1.40;;
54871;SDS011;43914;57.680;11.982;2022-09-27T03:52:50;6.35;;;1.70;;
54871;SDS011;43914;57.680;11.982;2022-09-27T03:55:17;6.05;;;1.80;;
54871;SDS011;43914;57.680;11.982;2022-09-27T03:57:44;5.62;;;1.50;;
54871;SDS011;43914;57.680;11.982;2022-09-27T04:00:11;5.15;;;1.65;;
54871;SDS011;43914;57.680;11.982;2022-09-27T04:02:40;6.83;;;1.75;;
54871;SDS011;43914;57.680;11.982;2022-09-27T04:05:07;5.67;;;1.50;;
54871;SDS011;43914;57.680;11.982;2022-09-27T04:07:33;5.58;;;1.47;;
54871;SDS011;43914;57.680;11.982;2022-09-27T04:09:59;4.80;;;1.52;;
54871;SDS011;43914;57.680;11.982;2022-09-27T04:12:28;4.15;;;1.27;;
54871;SDS011;43914;57.680;11.982;2022-09-27T04:14:54;5.47;;;1.40;;
54871;SDS011;43914;57.680;11.982;2022-09-27T04:17:20;4.40;;;1.47;;
54871;SDS011;43914;57.680;11.982;2022-09-27T04:19:46;5.30;;;1.60;;
54871;SDS011;43914;57.680;11.982;2022-09-27T04:22:12;4.20;;;1.30;;
54871;SDS011;43914;57.680;11.982;2022-09-27T04:24:39;5.25;;;1.40;;
54871;SDS011;43914;57.680;11.982;2022-09-27T04:27:06;7.42;;;1.70;;
54871;SDS011;43914;57.680;11.982;2022-09-27T04:29:32;3.83;;;1.42;;
54871;SDS011;43914;57.680;11.982;2022-09-27T04:31:58;5.22;;;1.50;;
54871;SDS011;43914;57.680;11.982;2022-09-27T04:34:25;4.75;;;1.35;;
54871;SDS011;43914;57.680;11.982;2022-09-27T04:37:09;5.87;;;1.50;;
54871;SDS011;43914;57.680;11.982;2022-09-27T04:39:37;6.67;;;1.77;;
54871;SDS011;43914;57.680;11.982;2022-09-27T04:42:04;6.28;;;1.50;;
54871;SDS011;43914;57.680;11.982;2022-09-27T04:44:30;5.70;;;1.57;;
54871;SDS011;43914;57.680;11.982;2022-09-27T04:46:56;6.05;;;1.50;;
54871;SDS011;43914;57.680;11.982;2022-09-27T04:49:23;5.42;;;1.10;;
54871;SDS011;43914;57.680;11.982;2022-09-27T04:51:49;3.75;;;1.15;;
54871;SDS011;43914;57.680;11.982;2022-09-27T04:54:15;3.87;;;1.25;;
54871;SDS011;43914;57.680;11.982;2022-09-27T04:56:41;4.65;;;1.50;;
54871;SDS011;43914;57.680;11.982;2022-09-27T04:59:08;3.83;;;1.27;;
54871;SDS011;43914;57.680;11.982;2022-09-27T05:01:34;4.47;;;1.35;;
54871;SDS011;43914;57.680;11.982;2022-09-27T05:04:01;4.83;;;1.87;;
54871;SDS011;43914;57.680;11.982;2022-09-27T05:06:27;3.33;;;1.17;;
54871;SDS011;43914;57.680;11.982;2022-09-27T05:08:56;4.35;;;1.27;;
54871;SDS011;43914;57.680;11.982;2022-09-27T05:11:23;3.15;;;1.15;;
54871;SDS011;43914;57.680;11.982;2022-09-27T05:13:51;4.92;;;1.30;;
54871;SDS011;43914;57.680;11.982;2022-09-27T05:16:17;5.55;;;1.17;;
54871;SDS011;43914;57.680;11.982;2022-09-27T05:18:45;5.00;;;1.22;;
54871;SDS011;43914;57.680;11.982;2022-09-27T05:21:11;3.77;;;1.35;;
54871;SDS011;43914;57.680;11.982;2022-09-27T05:23:37;3.27;;;1.10;;
54871;SDS011;43914;57.680;11.982;2022-09-27T05:26:04;2.95;;;1.20;;
54871;SDS011;43914;57.680;11.982;2022-09-27T05:28:33;5.20;;;1.22;;
54871;SDS011;43914;57.680;11.982;2022-09-27T05:31:02;3.90;;;1.10;;
54871;SDS011;43914;57.680;11.982;2022-09-27T05:33:29;3.10;;;1.15;;
54871;SDS011;43914;57.680;11.982;2022-09-27T05:35:55;3.30;;;1.10;;
54871;SDS011;43914;57.680;11.982;2022-09-27T05:38:22;2.75;;;1.10;;
54871;SDS011;43914;57.680;11.982;2022-09-27T05:40:50;4.15;;;1.10;;
54871;SDS011;43914;57.680;11.982;2022-09-27T05:43:16;3.47;;;1.20;;
54871;SDS011;43914;57.680;11.982;2022-09-27T05:45:43;3.55;;;1.30;;
54871;SDS011;43914;57.680;11.982;2022-09-27T05:48:09;4.42;;;1.40;;
54871;SDS011;43914;57.680;11.982;2022-09-27T05:50:37;4.03;;;1.27;;
54871;SDS011;43914;57.680;11.982;2022-09-27T05:53:04;3.85;;;1.32;;
54871;SDS011;43914;57.680;11.982;2022-09-27T05:55:30;3.27;;;1.15;;
54871;SDS011;43914;57.680;11.982;2022-09-27T05:58:01;4.28;;;1.55;;
54871;SDS011;43914;57.680;11.982;2022-09-27T06:00:31;5.40;;;1.50;;
54871;SDS011;43914;57.680;11.982;2022-09-27T06:03:02;4.67;;;1.42;;
54871;SDS011;43914;57.680;11.982;2022-09-27T06:05:33;4.47;;;1.40;;
54871;SDS011;43914;57.680;11.982;2022-09-27T06:08:03;4.20;;;1.40;;
54871;SDS011;43914;57.680;11.982;2022-09-27T06:10:32;5.62;;;1.52;;
54871;SDS011;43914;57.680;11.982;2022-09-27T06:13:00;6.12;;;1.50;;
54871;SDS011;43914;57.680;11.982;2022-09-27T06:15:32;4.47;;;1.30;;
54871;SDS011;43914;57.680;11.982;2022-09-27T06:18:02;4.03;;;1.47;;
54871;SDS011;43914;57.680;11.982;2022-09-27T06:20:35;5.03;;;1.70;;
54871;SDS011;43914;57.680;11.982;2022-09-27T06:23:06;7.45;;;1.90;;
54871;SDS011;43914;57.680;11.982;2022-09-27T06:25:38;4.92;;;1.62;;
54871;SDS011;43914;57.680;11.982;2022-09-27T06:28:05;6.53;;;1.80;;
54871;SDS011;43914;57.680;11.982;2022-09-27T06:30:36;5.10;;;1.70;;
54871;SDS011;43914;57.680;11.982;2022-09-27T06:33:06;5.10;;;1.70;;
54871;SDS011;43914;57.680;11.982;2022-09-27T06:35:34;5.20;;;1.70;;
54871;SDS011;43914;57.680;11.982;2022-09-27T06:38:05;4.72;;;1.60;;
54871;SDS011;43914;57.680;11.982;2022-09-27T06:40:33;5.42;;;1.90;;
54871;SDS011;43914;57.680;11.982;2022-09-27T06:43:04;4.85;;;1.87;;
54871;SDS011;43914;57.680;11.982;2022-09-27T06:45:34;6.50;;;1.82;;
54871;SDS011;43914;57.680;11.982;2022-09-27T06:48:02;6.87;;;2.00;;
54871;SDS011;43914;57.680;11.982;2022-09-27T06:50:34;5.62;;;1.90;;
54871;SDS011;43914;57.680;11.982;2022-09-27T06:53:03;7.37;;;2.00;;
54871;SDS011;43914;57.680;11.982;2022-09-27T06:55:30;6.22;;;1.90;;
54871;SDS011;43914;57.680;11.982;2022-09-27T06:57:57;6.25;;;2.02;;
54871;SDS011;43914;57.680;11.982;2022-09-27T07:00:43;6.25;;;2.10;;
54871;SDS011;43914;57.680;11.982;2022-09-27T07:03:12;6.40;;;2.08;;
54871;SDS011;43914;57.680;11.982;2022-09-27T07:05:40;5.55;;;1.90;;
54871;SDS011;43914;57.680;11.982;2022-09-27T07:08:08;7.17;;;2.02;;
54871;SDS011;43914;57.680;11.982;2022-09-27T07:10:38;5.90;;;2.00;;
54871;SDS011;43914;57.680;11.982;2022-09-27T07:13:06;6.12;;;2.05;;
54871;SDS011;43914;57.680;11.982;2022-09-27T07:15:34;6.92;;;1.92;;
54871;SDS011;43914;57.680;11.982;2022-09-27T07:18:03;6.95;;;1.80;;
54871;SDS011;43914;57.680;11.982;2022-09-27T07:20:35;6.15;;;2.02;;
54871;SDS011;43914;57.680;11.982;2022-09-27T07:23:01;6.08;;;1.85;;
54871;SDS011;43914;57.680;11.982;2022-09-27T07:25:29;6.12;;;1.82;;
54871;SDS011;43914;57.680;11.982;2022-09-27T07:28:06;5.80;;;1.72;;
54871;SDS011;43914;57.680;11.982;2022-09-27T07:30:42;8.18;;;2.17;;
54871;SDS011;43914;57.680;11.982;2022-09-27T07:33:09;8.65;;;1.85;;
54871;SDS011;43914;57.680;11.982;2022-09-27T07:35:39;5.45;;;1.70;;
54871;SDS011;43914;57.680;11.982;2022-09-27T07:38:08;6.40;;;1.90;;
54871;SDS011;43914;57.680;11.982;2022-09-27T07:40:38;7.92;;;1.67;;
54871;SDS011;43914;57.680;11.982;2022-09-27T07:43:05;8.40;;;2.67;;
54871;SDS011;43914;57.680;11.982;2022-09-27T07:45:33;6.47;;;2.00;;
54871;SDS011;43914;57.680;11.982;2022-09-27T07:48:03;7.10;;;2.25;;
54871;SDS011;43914;57.680;11.982;2022-09-27T07:50:33;7.15;;;2.00;;
54871;SDS011;43914;57.680;11.982;2022-09-27T07:52:59;6.78;;;1.90;;
54871;SDS011;43914;57.680;11.982;2022-09-27T07:55:25;5.35;;;1.95;;
54871;SDS011;43914;57.680;11.982;2022-09-27T07:57:59;5.35;;;1.60;;
54871;SDS011;43914;57.680;11.982;2022-09-27T08:00:28;8.30;;;1.90;;
54871;SDS011;43914;57.680;11.982;2022-09-27T08:02:55;7.58;;;2.17;;
54871;SDS011;43914;57.680;11.982;2022-09-27T08:05:21;5.87;;;2.02;;
54871;SDS011;43914;57.680;11.982;2022-09-27T08:07:52;7.83;;;2.08;;
54871;SDS011;43914;57.680;11.982;2022-09-27T08:10:23;5.87;;;1.98;;
54871;SDS011;43914;57.680;11.982;2022-09-27T08:12:51;6.17;;;2.05;;
54871;SDS011;43914;57.680;11.982;2022-09-27T08:15:17;8.88;;;2.00;;
54871;SDS011;43914;57.680;11.982;2022-09-27T08:17:44;7.37;;;2.20;;
54871;SDS011;43914;57.680;11.982;2022-09-27T08:20:10;7.15;;;2.10;;
54871;SDS011;43914;57.680;11.982;2022-09-27T08:22:39;6.70;;;2.10;;
54871;SDS011;43914;57.680;11.982;2022-09-27T08:25:07;5.85;;;1.80;;
54871;SDS011;43914;57.680;11.982;2022-09-27T08:27:34;9.65;;;1.90;;
54871;SDS011;43914;57.680;11.982;2022-09-27T08:30:00;5.85;;;1.75;;
54871;SDS011;43914;57.680;11.982;2022-09-27T08:32:27;6.30;;;2.10;;
54871;SDS011;43914;57.680;11.982;2022-09-27T08:34:55;6.55;;;2.20;;
54871;SDS011;43914;57.680;11.982;2022-09-27T08:37:21;5.72;;;1.60;;
54871;SDS011;43914;57.680;11.982;2022-09-27T08:39:47;7.10;;;2.15;;
54871;SDS011;43914;57.680;11.982;2022-09-27T08:42:18;6.97;;;1.90;;
54871;SDS011;43914;57.680;11.982;2022-09-27T08:47:49;8.48;;;2.30;;
54871;SDS011;43914;57.680;11.982;2022-09-27T08:55:51;6.53;;;1.75;;
54871;SDS011;43914;57.680;11.982;2022-09-27T08:58:30;6.12;;;2.00;;
54871;SDS011;43914;57.680;11.982;2022-09-27T09:01:04;6.83;;;2.08;;
54871;SDS011;43914;57.680;11.982;2022-09-27T09:03:42;7.55;;;2.33;;
54871;SDS011;43914;57.680;11.982;2022-09-27T09:26:37;7.12;;;2.20;;
54871;SDS011;43914;57.680;11.982;2022-09-27T09:29:44;8.28;;;2.00;;
54871;SDS011;43914;57.680;11.982;2022-09-27T09:38:36;6.87;;;2.30;;
54871;SDS011;43914;57.680;11.982;2022-09-27T09:41:23;9.35;;;2.10;;
54871;SDS011;43914;57.680;11.982;2022-09-27T09:44:16;6.62;;;2.08;;
54871;SDS011;43914;57.680;11.982;2022-09-27T09:46:59;8.75;;;2.90;;
54871;SDS011;43914;57.680;11.982;2022-09-27T09:52:12;7.78;;;2.20;;
54871;SDS011;43914;57.680;11.982;2022-09-27T09:57:21;7.35;;;1.92;;
54871;SDS011;43914;57.680;11.982;2022-09-27T09:59:58;6.22;;;1.85;;
54871;SDS011;43914;57.680;11.982;2022-09-27T10:02:38;5.90;;;1.92;;
54871;SDS011;43914;57.680;11.982;2022-09-27T10:05:08;6.03;;;2.08;;
54871;SDS011;43914;57.680;11.982;2022-09-27T10:07:38;7.40;;;1.90;;
54871;SDS011;43914;57.680;11.982;2022-09-27T10:10:05;6.10;;;2.00;;
54871;SDS011;43914;57.680;11.982;2022-09-27T10:12:36;6.75;;;1.95;;
54871;SDS011;43914;57.680;11.982;2022-09-27T10:15:03;7.60;;;2.12;;
54871;SDS011;43914;57.680;11.982;2022-09-27T10:17:41;7.83;;;2.05;;
54871;SDS011;43914;57.680;11.982;2022-09-27T10:20:24;6.50;;;1.92;;
54871;SDS011;43914;57.680;11.982;2022-09-27T10:23:10;6.62;;;2.10;;
54871;SDS011;43914;57.680;11.982;2022-09-27T10:28:34;6.53;;;2.05;;
54871;SDS011;43914;57.680;11.982;2022-09-27T10:31:08;5.62;;;1.95;;
54871;SDS011;43914;57.680;11.982;2022-09-27T10:33:38;7.40;;;2.30;;
54871;SDS011;43914;57.680;11.982;2022-09-27T10:36:31;5.90;;;2.10;;
54871;SDS011;43914;57.680;11.982;2022-09-27T10:38:58;7.97;;;2.33;;
54871;SDS011;43914;57.680;11.982;2022-09-27T10:46:55;6.97;;;2.30;;
54871;SDS011;43914;57.680;11.982;2022-09-27T10:49:28;6.75;;;2.20;;
54871;SDS011;43914;57.680;11.982;2022-09-27T10:52:13;6.28;;;2.12;;
54871;SDS011;43914;57.680;11.982;2022-09-27T10:54:53;5.78;;;1.87;;
54871;SDS011;43914;57.680;11.982;2022-09-27T10:57:23;8.00;;;2.40;;
54871;SDS011;43914;57.680;11.982;2022-09-27T10:59:57;5.87;;;2.00;;
54871;SDS011;43914;57.680;11.982;2022-09-27T11:02:26;6.87;;;2.20;;
54871;SDS011;43914;57.680;11.982;2022-09-27T11:10:26;5.12;;;1.87;;
54871;SDS011;43914;57.680;11.982;2022-09-27T11:35:36;6.75;;;2.00;;
54871;SDS011;43914;57.680;11.982;2022-09-27T11:38:23;6.33;;;2.40;;
54871;SDS011;43914;57.680;11.982;2022-09-27T11:41:09;5.80;;;2.08;;
54871;SDS011;43914;57.680;11.982;2022-09-27T11:55:41;8.00;;;2.45;;
54871;SDS011;43914;57.680;11.982;2022-09-27T11:58:25;5.95;;;2.20;;
54871;SDS011;43914;57.680;11.982;2022-09-27T12:01:02;6.17;;;2.12;;
54871;SDS011;43914;57.680;11.982;2022-09-27T12:03:58;6.65;;;1.70;;
54871;SDS011;43914;57.680;11.982;2022-09-27T12:09:35;4.87;;;1.85;;
54871;SDS011;43914;57.680;11.982;2022-09-27T12:12:17;6.40;;;1.92;;
54871;SDS011;43914;57.680;11.982;2022-09-27T12:14:49;5.90;;;1.90;;
54871;SDS011;43914;57.680;11.982;2022-09-27T12:17:28;8.60;;;2.08;;
54871;SDS011;43914;57.680;11.982;2022-09-27T12:20:18;6.58;;;2.10;;
54871;SDS011;43914;57.680;11.982;2022-09-27T12:23:01;5.30;;;1.90;;
54871;SDS011;43914;57.680;11.982;2022-09-27T12:25:49;6.42;;;1.92;;
54871;SDS011;43914;57.680;11.982;2022-09-27T12:28:30;6.47;;;2.10;;
54871;SDS011;43914;57.680;11.982;2022-09-27T12:31:15;6.20;;;1.90;;
54871;SDS011;43914;57.680;11.982;2022-09-27T12:36:40;7.45;;;2.05;;
54871;SDS011;43914;57.680;11.982;2022-09-27T12:39:17;6.00;;;1.70;;
54871;SDS011;43914;57.680;11.982;2022-09-27T12:41:58;6.22;;;1.98;;
54871;SDS011;43914;57.680;11.982;2022-09-27T12:44:25;5.72;;;1.87;;
54871;SDS011;43914;57.680;11.982;2022-09-27T12:52:40;4.40;;;1.45;;
54871;SDS011;43914;57.680;11.982;2022-09-27T13:00:39;5.92;;;1.82;;
54871;SDS011;43914;57.680;11.982;2022-09-27T13:14:53;4.78;;;1.50;;
54871;SDS011;43914;57.680;11.982;2022-09-27T13:25:54;4.55;;;1.62;;
54871;SDS011;43914;57.680;11.982;2022-09-27T13:34:45;4.28;;;1.30;;
54871;SDS011;43914;57.680;11.982;2022-09-27T13:37:27;5.00;;;1.50;;
54871;SDS011;43914;57.680;11.982;2022-09-27T13:45:52;4.37;;;1.40;;
54871;SDS011;43914;57.680;11.982;2022-09-27T13:54:34;5.40;;;1.42;;
54871;SDS011;43914;57.680;11.982;2022-09-27T13:57:03;5.97;;;1.47;;
54871;SDS011;43914;57.680;11.982;2022-09-27T13:59:38;6.03;;;1.70;;
54871;SDS011;43914;57.680;11.982;2022-09-27T14:02:17;5.45;;;1.60;;
54871;SDS011;43914;57.680;11.982;2022-09-27T14:04:53;5.20;;;1.52;;
54871;SDS011;43914;57.680;11.982;2022-09-27T14:07:44;4.90;;;1.45;;
54871;SDS011;43914;57.680;11.982;2022-09-27T14:09:57;3.62;;;1.20;;
54871;SDS011;43914;57.680;11.982;2022-09-27T14:12:29;4.00;;;1.30;;
54871;SDS011;43914;57.680;11.982;2022-09-27T14:15:00;4.87;;;1.50;;
54871;SDS011;43914;57.680;11.982;2022-09-27T14:17:32;4.15;;;1.30;;
54871;SDS011;43914;57.680;11.982;2022-09-27T14:19:59;5.45;;;1.87;;
54871;SDS011;43914;57.680;11.982;2022-09-27T14:22:27;5.30;;;1.30;;
54871;SDS011;43914;57.680;11.982;2022-09-27T14:24:54;4.97;;;1.40;;
54871;SDS011;43914;57.680;11.982;2022-09-27T14:27:22;5.53;;;1.40;;
54871;SDS011;43914;57.680;11.982;2022-09-27T14:29:56;4.53;;;1.32;;
54871;SDS011;43914;57.680;11.982;2022-09-27T14:32:27;4.87;;;1.40;;
54871;SDS011;43914;57.680;11.982;2022-09-27T14:35:19;7.53;;;1.60;;
54871;SDS011;43914;57.680;11.982;2022-09-27T14:37:36;4.08;;;1.30;;
54871;SDS011;43914;57.680;11.982;2022-09-27T14:40:04;4.47;;;1.30;;
54871;SDS011;43914;57.680;11.982;2022-09-27T14:42:34;4.42;;;1.40;;
54871;SDS011;43914;57.680;11.982;2022-09-27T14:45:05;3.60;;;1.25;;
54871;SDS011;43914;57.680;11.982;2022-09-27T14:47:43;5.05;;;1.40;;
54871;SDS011;43914;57.680;11.982;2022-09-27T14:50:16;4.85;;;1.50;;
54871;SDS011;43914;57.680;11.982;2022-09-27T14:52:47;4.22;;;1.30;;
54871;SDS011;43914;57.680;11.982;2022-09-27T14:55:17;5.42;;;1.67;;
54871;SDS011;43914;57.680;11.982;2022-09-27T14:57:46;5.30;;;1.70;;
54871;SDS011;43914;57.680;11.982;2022-09-27T15:02:52;5.22;;;1.67;;
54871;SDS011;43914;57.680;11.982;2022-09-27T15:05:21;8.25;;;1.80;;
54871;SDS011;43914;57.680;11.982;2022-09-27T15:07:51;5.72;;;1.67;;
54871;SDS011;43914;57.680;11.982;2022-09-27T15:10:21;5.75;;;1.60;;
54871;SDS011;43914;57.680;11.982;2022-09-27T15:12:52;5.53;;;1.70;;
54871;SDS011;43914;57.680;11.982;2022-09-27T15:15:23;4.90;;;1.45;;
54871;SDS011;43914;57.680;11.982;2022-09-27T15:22:56;3.90;;;1.50;;
54871;SDS011;43914;57.680;11.982;2022-09-27T15:25:40;6.10;;;1.90;;
54871;SDS011;43914;57.680;11.982;2022-09-27T15:30:53;6.03;;;1.47;;
54871;SDS011;43914;57.680;11.982;2022-09-27T15:33:23;6.22;;;1.70;;
54871;SDS011;43914;57.680;11.982;2022-09-27T15:35:56;4.95;;;1.60;;
54871;SDS011;43914;57.680;11.982;2022-09-27T15:38:32;6.25;;;1.65;;
54871;SDS011;43914;57.680;11.982;2022-09-27T15:41:08;4.92;;;1.60;;
54871;SDS011;43914;57.680;11.982;2022-09-27T15:43:48;3.87;;;1.40;;
54871;SDS011;43914;57.680;11.982;2022-09-27T15:51:54;5.55;;;1.72;;
54871;SDS011;43914;57.680;11.982;2022-09-27T15:54:20;5.67;;;1.50;;
54871;SDS011;43914;57.680;11.982;2022-09-27T15:56:49;6.12;;;1.70;;
54871;SDS011;43914;57.680;11.982;2022-09-27T15:59:23;4.40;;;1.52;;
54871;SDS011;43914;57.680;11.982;2022-09-27T16:01:51;6.87;;;2.08;;
54871;SDS011;43914;57.680;11.982;2022-09-27T16:04:24;4.08;;;1.40;;
54871;SDS011;43914;57.680;11.982;2022-09-27T16:06:51;5.15;;;1.75;;
54871;SDS011;43914;57.680;11.982;2022-09-27T16:09:19;7.85;;;2.12;;
54871;SDS011;43914;57.680;11.982;2022-09-27T16:11:48;5.80;;;2.08;;
54871;SDS011;43914;57.680;11.982;2022-09-27T16:14:15;6.58;;;1.70;;
54871;SDS011;43914;57.680;11.982;2022-09-27T16:16:44;4.28;;;1.50;;
54871;SDS011;43914;57.680;11.982;2022-09-27T16:19:16;4.90;;;1.60;;
54871;SDS011;43914;57.680;11.982;2022-09-27T16:21:43;7.62;;;1.90;;
54871;SDS011;43914;57.680;11.982;2022-09-27T16:24:11;5.58;;;1.70;;
54871;SDS011;43914;57.680;11.982;2022-09-27T16:26:38;4.72;;;1.50;;
54871;SDS011;43914;57.680;11.982;2022-09-27T16:29:14;4.95;;;1.70;;
54871;SDS011;43914;57.680;11.982;2022-09-27T16:31:38;6.00;;;1.87;;
54871;SDS011;43914;57.680;11.982;2022-09-27T16:34:05;6.15;;;1.80;;
54871;SDS011;43914;57.680;11.982;2022-09-27T16:36:34;5.22;;;2.00;;
54871;SDS011;43914;57.680;11.982;2022-09-27T16:39:00;4.80;;;1.57;;
54871;SDS011;43914;57.680;11.982;2022-09-27T16:41:28;6.95;;;2.20;;
54871;SDS011;43914;57.680;11.982;2022-09-27T16:43:54;6.05;;;2.17;;
54871;SDS011;43914;57.680;11.982;2022-09-27T16:46:20;5.92;;;1.77;;
54871;SDS011;43914;57.680;11.982;2022-09-27T16:48:47;5.97;;;1.80;;
54871;SDS011;43914;57.680;11.982;2022-09-27T16:51:17;6.08;;;2.22;;
54871;SDS011;43914;57.680;11.982;2022-09-27T16:54:04;5.83;;;2.02;;
54871;SDS011;43914;57.680;11.982;2022-09-27T16:56:32;6.37;;;2.00;;
54871;SDS011;43914;57.680;11.982;2022-09-27T16:59:01;5.60;;;2.00;;
54871;SDS011;43914;57.680;11.982;2022-09-27T17:01:30;5.45;;;1.90;;
54871;SDS011;43914;57.680;11.982;2022-09-27T17:03:57;6.33;;;2.00;;
54871;SDS011;43914;57.680;11.982;2022-09-27T17:06:24;6.17;;;2.08;;
54871;SDS011;43914;57.680;11.982;2022-09-27T17:08:53;7.12;;;2.40;;
54871;SDS011;43914;57.680;11.982;2022-09-27T17:11:20;7.75;;;2.00;;
54871;SDS011;43914;57.680;11.982;2022-09-27T17:13:47;5.35;;;1.98;;
54871;SDS011;43914;57.680;11.982;2022-09-27T17:16:13;6.53;;;1.72;;
54871;SDS011;43914;57.680;11.982;2022-09-27T17:18:42;5.20;;;1.75;;
54871;SDS011;43914;57.680;11.982;2022-09-27T17:21:09;7.53;;;2.20;;
54871;SDS011;43914;57.680;11.982;2022-09-27T17:23:36;5.62;;;1.87;;
54871;SDS011;43914;57.680;11.982;2022-09-27T17:26:07;6.00;;;1.90;;
54871;SDS011;43914;57.680;11.982;2022-09-27T17:28:45;4.87;;;1.70;;
54871;SDS011;43914;57.680;11.982;2022-09-27T17:31:13;5.55;;;1.80;;
54871;SDS011;43914;57.680;11.982;2022-09-27T17:33:46;7.20;;;1.95;;
54871;SDS011;43914;57.680;11.982;2022-09-27T17:36:20;5.28;;;1.77;;
54871;SDS011;43914;57.680;11.982;2022-09-27T17:38:46;4.00;;;1.45;;
54871;SDS011;43914;57.680;11.982;2022-09-27T17:41:17;5.00;;;1.75;;
54871;SDS011;43914;57.680;11.982;2022-09-27T17:43:50;5.37;;;2.00;;
54871;SDS011;43914;57.680;11.982;2022-09-27T17:46:22;4.80;;;1.77;;
54871;SDS011;43914;57.680;11.982;2022-09-27T17:48:51;5.78;;;1.90;;
54871;SDS011;43914;57.680;11.982;2022-09-27T17:51:37;7.10;;;1.95;;
54871;SDS011;43914;57.680;11.982;2022-09-27T17:54:06;5.28;;;1.87;;
54871;SDS011;43914;57.680;11.982;2022-09-27T17:56:35;7.87;;;2.08;;
54871;SDS011;43914;57.680;11.982;2022-09-27T17:59:03;6.08;;;2.27;;
54871;SDS011;43914;57.680;11.982;2022-09-27T18:01:30;6.42;;;2.27;;
54871;SDS011;43914;57.680;11.982;2022-09-27T18:03:59;5.60;;;1.82;;
54871;SDS011;43914;57.680;11.982;2022-09-27T18:06:27;8.60;;;2.17;;
54871;SDS011;43914;57.680;11.982;2022-09-27T18:08:54;7.03;;;2.20;;
54871;SDS011;43914;57.680;11.982;2022-09-27T18:11:22;6.58;;;2.20;;
54871;SDS011;43914;57.680;11.982;2022-09-27T18:13:54;6.03;;;2.30;;
54871;SDS011;43914;57.680;11.982;2022-09-27T18:16:30;7.60;;;2.20;;
54871;SDS011;43914;57.680;11.982;2022-09-27T18:19:11;6.58;;;2.20;;
54871;SDS011;43914;57.680;11.982;2022-09-27T18:21:41;7.37;;;2.50;;
54871;SDS011;43914;57.680;11.982;2022-09-27T18:24:08;7.97;;;2.20;;
54871;SDS011;43914;57.680;11.982;2022-09-27T18:26:35;6.92;;;2.35;;
54871;SDS011;43914;57.680;11.982;2022-09-27T18:29:05;5.58;;;2.50;;
54871;SDS011;43914;57.680;11.982;2022-09-27T18:31:36;6.58;;;2.17;;